Terminal Aerodrome Forecast
Issued by NWS

Home | Current Version | Previous Version | Text Only | Print | Product List | Glossary Off
Versions: 1 2 3 4 5 6 7 8 9 10 11 12 13 14 15 16 17 18 19 20 21 22 23 24 25 26 27 28

000
FTUS42 KMHX 211742
TAFPGV
TAF
KPGV 211742Z 2118/2218 VRB04KT P6SM SCT035
     FM212100 16004KT P6SM VCTS SCT025CB BKN035
     FM220000 VRB04KT P6SM SCT020 BKN150
     FM221000 21005KT P6SM SCT008 BKN025
     FM221400 22010KT P6SM BKN050
      AMD LTD TO CLD VIS AND WIND=

USA.gov is the U.S. government's official web portal to all federal, state and local government web resources and services.